sensor_id;sensor_type;location;lat;lon;timestamp;temperature;humidity
67641;SHT31;54434;50.096;20.082;2022-11-21T00:01:29;0.35;85.67
67641;SHT31;54434;50.096;20.082;2022-11-21T00:04:05;0.39;85.71
67641;SHT31;54434;50.096;20.082;2022-11-21T00:06:41;0.37;85.70
67641;SHT31;54434;50.096;20.082;2022-11-21T00:09:18;0.36;85.78
67641;SHT31;54434;50.096;20.082;2022-11-21T00:11:53;0.37;85.80
67641;SHT31;54434;50.096;20.082;2022-11-21T00:14:29;0.33;85.75
67641;SHT31;54434;50.096;20.082;2022-11-21T00:17:06;0.29;85.83
67641;SHT31;54434;50.096;20.082;2022-11-21T00:19:42;0.23;85.90
67641;SHT31;54434;50.096;20.082;2022-11-21T00:22:18;0.20;85.89
67641;SHT31;54434;50.096;20.082;2022-11-21T00:24:54;0.15;85.90
67641;SHT31;54434;50.096;20.082;2022-11-21T00:27:31;0.10;85.92
67641;SHT31;54434;50.096;20.082;2022-11-21T00:30:09;0.07;85.94
67641;SHT31;54434;50.096;20.082;2022-11-21T00:32:46;0.08;85.89
67641;SHT31;54434;50.096;20.082;2022-11-21T00:35:22;0.09;85.65
67641;SHT31;54434;50.096;20.082;2022-11-21T00:37:58;0.07;85.44
67641;SHT31;54434;50.096;20.082;2022-11-21T00:40:34;0.06;85.35
67641;SHT31;54434;50.096;20.082;2022-11-21T00:43:10;0.11;85.16
67641;SHT31;54434;50.096;20.082;2022-11-21T00:45:45;0.08;84.97
67641;SHT31;54434;50.096;20.082;2022-11-21T00:48:21;0.03;84.82
67641;SHT31;54434;50.096;20.082;2022-11-21T00:50:57;-0.04;84.86
67641;SHT31;54434;50.096;20.082;2022-11-21T00:53:33;-0.07;84.75
67641;SHT31;54434;50.096;20.082;2022-11-21T00:56:09;-0.17;84.65
67641;SHT31;54434;50.096;20.082;2022-11-21T00:58:45;-0.24;84.75
67641;SHT31;54434;50.096;20.082;2022-11-21T01:01:21;-0.29;84.89
67641;SHT31;54434;50.096;20.082;2022-11-21T01:03:57;-0.34;84.98
67641;SHT31;54434;50.096;20.082;2022-11-21T01:06:33;-0.42;85.10
67641;SHT31;54434;50.096;20.082;2022-11-21T01:09:11;-0.48;85.28
67641;SHT31;54434;50.096;20.082;2022-11-21T01:11:47;-0.52;85.30
67641;SHT31;54434;50.096;20.082;2022-11-21T01:14:23;-0.58;85.25
67641;SHT31;54434;50.096;20.082;2022-11-21T01:17:00;-0.64;85.32
67641;SHT31;54434;50.096;20.082;2022-11-21T01:19:36;-0.71;85.52
67641;SHT31;54434;50.096;20.082;2022-11-21T01:22:11;-0.74;85.60
67641;SHT31;54434;50.096;20.082;2022-11-21T01:24:48;-0.76;85.57
67641;SHT31;54434;50.096;20.082;2022-11-21T01:27:24;-0.78;85.61
67641;SHT31;54434;50.096;20.082;2022-11-21T01:30:00;-0.75;85.64
67641;SHT31;54434;50.096;20.082;2022-11-21T01:32:37;-0.74;85.42
67641;SHT31;54434;50.096;20.082;2022-11-21T01:35:13;-0.77;85.26
67641;SHT31;54434;50.096;20.082;2022-11-21T01:37:49;-0.81;85.08
67641;SHT31;54434;50.096;20.082;2022-11-21T01:40:25;-0.84;85.23
67641;SHT31;54434;50.096;20.082;2022-11-21T01:43:12;-0.79;85.53
67641;SHT31;54434;50.096;20.082;2022-11-21T01:45:58;-0.72;85.41
67641;SHT31;54434;50.096;20.082;2022-11-21T01:48:44;-0.67;85.35
67641;SHT31;54434;50.096;20.082;2022-11-21T01:51:27;-0.65;85.33
67641;SHT31;54434;50.096;20.082;2022-11-21T01:54:11;-0.65;85.21
67641;SHT31;54434;50.096;20.082;2022-11-21T01:56:57;-0.66;85.01
67641;SHT31;54434;50.096;20.082;2022-11-21T01:59:41;-0.71;84.86
67641;SHT31;54434;50.096;20.082;2022-11-21T02:02:27;-0.77;84.73
67641;SHT31;54434;50.096;20.082;2022-11-21T02:05:08;-0.80;84.80
67641;SHT31;54434;50.096;20.082;2022-11-21T02:07:55;-0.86;84.89
67641;SHT31;54434;50.096;20.082;2022-11-21T02:10:36;-0.95;85.14
67641;SHT31;54434;50.096;20.082;2022-11-21T02:13:21;-1.03;85.27
67641;SHT31;54434;50.096;20.082;2022-11-21T02:15:58;-1.06;85.45
67641;SHT31;54434;50.096;20.082;2022-11-21T02:18:35;-1.12;85.45
67641;SHT31;54434;50.096;20.082;2022-11-21T02:21:15;-1.20;85.46
67641;SHT31;54434;50.096;20.082;2022-11-21T02:24:03;-1.21;85.72
67641;SHT31;54434;50.096;20.082;2022-11-21T02:26:48;-1.22;85.72
67641;SHT31;54434;50.096;20.082;2022-11-21T02:29:24;-1.24;85.86
67641;SHT31;54434;50.096;20.082;2022-11-21T02:32:03;-1.16;85.90
67641;SHT31;54434;50.096;20.082;2022-11-21T02:34:39;-1.16;85.80
67641;SHT31;54434;50.096;20.082;2022-11-21T02:37:16;-1.15;85.89
67641;SHT31;54434;50.096;20.082;2022-11-21T02:39:52;-1.11;85.76
67641;SHT31;54434;50.096;20.082;2022-11-21T02:42:32;-1.11;85.66
67641;SHT31;54434;50.096;20.082;2022-11-21T02:45:21;-1.07;85.54
67641;SHT31;54434;50.096;20.082;2022-11-21T02:48:03;-1.02;85.37
67641;SHT31;54434;50.096;20.082;2022-11-21T02:50:40;-0.92;85.51
67641;SHT31;54434;50.096;20.082;2022-11-21T02:53:19;-0.88;85.34
67641;SHT31;54434;50.096;20.082;2022-11-21T02:55:54;-0.94;85.35
67641;SHT31;54434;50.096;20.082;2022-11-21T02:58:31;-0.98;85.51
67641;SHT31;54434;50.096;20.082;2022-11-21T03:01:07;-1.05;85.49
67641;SHT31;54434;50.096;20.082;2022-11-21T03:03:43;-1.14;85.59
67641;SHT31;54434;50.096;20.082;2022-11-21T03:06:19;-1.22;85.70
67641;SHT31;54434;50.096;20.082;2022-11-21T03:08:54;-1.28;85.84
67641;SHT31;54434;50.096;20.082;2022-11-21T03:11:30;-1.34;85.90
67641;SHT31;54434;50.096;20.082;2022-11-21T03:14:06;-1.39;86.06
67641;SHT31;54434;50.096;20.082;2022-11-21T03:16:43;-1.43;86.05
67641;SHT31;54434;50.096;20.082;2022-11-21T03:19:19;-1.51;86.10
67641;SHT31;54434;50.096;20.082;2022-11-21T03:21:54;-1.52;86.30
67641;SHT31;54434;50.096;20.082;2022-11-21T03:24:30;-1.55;86.16
67641;SHT31;54434;50.096;20.082;2022-11-21T03:27:06;-1.58;86.23
67641;SHT31;54434;50.096;20.082;2022-11-21T03:29:43;-1.57;86.27
67641;SHT31;54434;50.096;20.082;2022-11-21T03:32:19;-1.57;86.26
67641;SHT31;54434;50.096;20.082;2022-11-21T03:34:55;-1.54;86.24
67641;SHT31;54434;50.096;20.082;2022-11-21T03:37:31;-1.52;86.10
67641;SHT31;54434;50.096;20.082;2022-11-21T03:40:09;-1.61;85.92
67641;SHT31;54434;50.096;20.082;2022-11-21T03:42:46;-1.68;86.10
67641;SHT31;54434;50.096;20.082;2022-11-21T03:45:21;-1.70;86.18
67641;SHT31;54434;50.096;20.082;2022-11-21T03:47:57;-1.75;86.09
67641;SHT31;54434;50.096;20.082;2022-11-21T03:50:34;-1.80;86.03
67641;SHT31;54434;50.096;20.082;2022-11-21T03:53:11;-1.89;85.98
67641;SHT31;54434;50.096;20.082;2022-11-21T03:55:46;-1.99;86.03
67641;SHT31;54434;50.096;20.082;2022-11-21T03:58:22;-2.08;86.13
67641;SHT31;54434;50.096;20.082;2022-11-21T04:00:58;-2.15;86.22
67641;SHT31;54434;50.096;20.082;2022-11-21T04:03:34;-2.23;86.24
67641;SHT31;54434;50.096;20.082;2022-11-21T04:06:12;-2.31;86.27
67641;SHT31;54434;50.096;20.082;2022-11-21T04:08:51;-2.37;86.21
67641;SHT31;54434;50.096;20.082;2022-11-21T04:11:27;-2.41;86.25
67641;SHT31;54434;50.096;20.082;2022-11-21T04:14:03;-2.48;86.31
67641;SHT31;54434;50.096;20.082;2022-11-21T04:16:39;-2.51;86.38
67641;SHT31;54434;50.096;20.082;2022-11-21T04:19:15;-2.51;86.33
67641;SHT31;54434;50.096;20.082;2022-11-21T04:21:51;-2.55;86.24
67641;SHT31;54434;50.096;20.082;2022-11-21T04:24:28;-2.50;86.34
67641;SHT31;54434;50.096;20.082;2022-11-21T04:27:04;-2.46;85.97
67641;SHT31;54434;50.096;20.082;2022-11-21T04:29:40;-2.49;85.74
67641;SHT31;54434;50.096;20.082;2022-11-21T04:32:15;-2.46;85.62
67641;SHT31;54434;50.096;20.082;2022-11-21T04:34:51;-2.42;85.39
67641;SHT31;54434;50.096;20.082;2022-11-21T04:37:27;-2.39;85.20
67641;SHT31;54434;50.096;20.082;2022-11-21T04:40:04;-2.39;84.91
67641;SHT31;54434;50.096;20.082;2022-11-21T04:42:43;-2.41;84.87
67641;SHT31;54434;50.096;20.082;2022-11-21T04:45:19;-2.38;84.85
67641;SHT31;54434;50.096;20.082;2022-11-21T04:47:55;-2.39;84.58
67641;SHT31;54434;50.096;20.082;2022-11-21T04:50:31;-2.40;84.49
67641;SHT31;54434;50.096;20.082;2022-11-21T04:53:07;-2.47;84.33
67641;SHT31;54434;50.096;20.082;2022-11-21T04:55:43;-2.61;84.38
67641;SHT31;54434;50.096;20.082;2022-11-21T04:58:19;-2.72;84.53
67641;SHT31;54434;50.096;20.082;2022-11-21T05:00:55;-2.76;85.10
67641;SHT31;54434;50.096;20.082;2022-11-21T05:03:36;-2.78;85.43
67641;SHT31;54434;50.096;20.082;2022-11-21T05:06:12;-2.83;85.70
67641;SHT31;54434;50.096;20.082;2022-11-21T05:08:48;-2.84;85.94
67641;SHT31;54434;50.096;20.082;2022-11-21T05:11:24;-2.87;86.14
67641;SHT31;54434;50.096;20.082;2022-11-21T05:14:18;-2.90;86.20
67641;SHT31;54434;50.096;20.082;2022-11-21T05:16:57;-2.98;86.13
67641;SHT31;54434;50.096;20.082;2022-11-21T05:19:33;-3.07;86.13
67641;SHT31;54434;50.096;20.082;2022-11-21T05:22:09;-3.12;86.24
67641;SHT31;54434;50.096;20.082;2022-11-21T05:24:45;-3.07;86.28
67641;SHT31;54434;50.096;20.082;2022-11-21T05:27:20;-2.98;86.25
67641;SHT31;54434;50.096;20.082;2022-11-21T05:29:56;-2.96;86.08
67641;SHT31;54434;50.096;20.082;2022-11-21T05:32:32;-2.97;85.90
67641;SHT31;54434;50.096;20.082;2022-11-21T05:35:09;-2.90;85.85
67641;SHT31;54434;50.096;20.082;2022-11-21T05:37:45;-2.85;85.60
67641;SHT31;54434;50.096;20.082;2022-11-21T05:40:26;-2.77;85.60
67641;SHT31;54434;50.096;20.082;2022-11-21T05:43:02;-2.73;85.49
67641;SHT31;54434;50.096;20.082;2022-11-21T05:45:56;-2.63;85.64
67641;SHT31;54434;50.096;20.082;2022-11-21T05:48:32;-2.59;85.29
67641;SHT31;54434;50.096;20.082;2022-11-21T05:51:08;-2.58;85.16
67641;SHT31;54434;50.096;20.082;2022-11-21T05:53:45;-2.57;84.98
67641;SHT31;54434;50.096;20.082;2022-11-21T05:56:21;-2.59;84.79
67641;SHT31;54434;50.096;20.082;2022-11-21T05:58:58;-2.58;84.67
67641;SHT31;54434;50.096;20.082;2022-11-21T06:01:34;-2.65;84.38
67641;SHT31;54434;50.096;20.082;2022-11-21T06:04:28;-2.78;84.36
67641;SHT31;54434;50.096;20.082;2022-11-21T06:07:04;-2.88;84.47
67641;SHT31;54434;50.096;20.082;2022-11-21T06:09:40;-2.93;84.43
67641;SHT31;54434;50.096;20.082;2022-11-21T06:12:16;-2.99;84.68
67641;SHT31;54434;50.096;20.082;2022-11-21T06:14:56;-3.03;84.85
67641;SHT31;54434;50.096;20.082;2022-11-21T06:17:32;-3.08;84.85
67641;SHT31;54434;50.096;20.082;2022-11-21T06:20:10;-3.12;85.02
67641;SHT31;54434;50.096;20.082;2022-11-21T06:22:46;-3.10;85.19
67641;SHT31;54434;50.096;20.082;2022-11-21T06:25:23;-3.10;85.35
67641;SHT31;54434;50.096;20.082;2022-11-21T06:28:00;-3.12;85.69
67641;SHT31;54434;50.096;20.082;2022-11-21T06:30:37;-3.14;85.83
67641;SHT31;54434;50.096;20.082;2022-11-21T06:33:12;-3.11;85.98
67641;SHT31;54434;50.096;20.082;2022-11-21T06:35:49;-3.08;85.90
67641;SHT31;54434;50.096;20.082;2022-11-21T06:38:25;-3.02;85.88
67641;SHT31;54434;50.096;20.082;2022-11-21T06:41:05;-2.95;85.67
67641;SHT31;54434;50.096;20.082;2022-11-21T06:43:44;-2.89;85.48
67641;SHT31;54434;50.096;20.082;2022-11-21T06:46:20;-2.80;85.36
67641;SHT31;54434;50.096;20.082;2022-11-21T06:48:56;-2.73;85.19
67641;SHT31;54434;50.096;20.082;2022-11-21T06:51:32;-2.61;85.19
67641;SHT31;54434;50.096;20.082;2022-11-21T06:54:08;-2.54;85.04
67641;SHT31;54434;50.096;20.082;2022-11-21T06:56:47;-2.47;85.01
67641;SHT31;54434;50.096;20.082;2022-11-21T06:59:26;-2.43;84.83
67641;SHT31;54434;50.096;20.082;2022-11-21T07:02:02;-2.28;85.06
67641;SHT31;54434;50.096;20.082;2022-11-21T07:04:38;-2.15;84.88
67641;SHT31;54434;50.096;20.082;2022-11-21T07:07:14;-2.09;84.80
67641;SHT31;54434;50.096;20.082;2022-11-21T07:09:50;-2.07;84.96
67641;SHT31;54434;50.096;20.082;2022-11-21T07:12:26;-2.02;85.13
67641;SHT31;54434;50.096;20.082;2022-11-21T07:15:19;-2.05;85.15
67641;SHT31;54434;50.096;20.082;2022-11-21T07:17:58;-2.04;85.19
67641;SHT31;54434;50.096;20.082;2022-11-21T07:20:34;-2.08;85.24
67641;SHT31;54434;50.096;20.082;2022-11-21T07:23:10;-2.06;85.32
67641;SHT31;54434;50.096;20.082;2022-11-21T07:25:47;-2.02;85.41
67641;SHT31;54434;50.096;20.082;2022-11-21T07:28:23;-1.96;85.42
67641;SHT31;54434;50.096;20.082;2022-11-21T07:30:59;-1.86;85.59
67641;SHT31;54434;50.096;20.082;2022-11-21T07:33:44;-1.76;85.50
67641;SHT31;54434;50.096;20.082;2022-11-21T07:36:20;-1.59;85.65
67641;SHT31;54434;50.096;20.082;2022-11-21T07:38:56;-1.46;85.44
67641;SHT31;54434;50.096;20.082;2022-11-21T07:41:32;-1.34;85.30
67641;SHT31;54434;50.096;20.082;2022-11-21T07:44:08;-1.17;85.21
67641;SHT31;54434;50.096;20.082;2022-11-21T07:46:44;-0.94;85.17
67641;SHT31;54434;50.096;20.082;2022-11-21T07:49:20;-0.60;85.34
67641;SHT31;54434;50.096;20.082;2022-11-21T07:51:56;-0.24;85.37
67641;SHT31;54434;50.096;20.082;2022-11-21T07:54:33;0.08;85.32
67641;SHT31;54434;50.096;20.082;2022-11-21T07:57:09;0.37;84.99
67641;SHT31;54434;50.096;20.082;2022-11-21T07:59:45;0.67;84.84
67641;SHT31;54434;50.096;20.082;2022-11-21T08:02:22;0.93;84.25
67641;SHT31;54434;50.096;20.082;2022-11-21T08:05:00;1.17;83.90
67641;SHT31;54434;50.096;20.082;2022-11-21T08:07:36;1.44;83.67
67641;SHT31;54434;50.096;20.082;2022-11-21T08:10:12;1.71;83.07
67641;SHT31;54434;50.096;20.082;2022-11-21T08:12:50;1.95;82.63
67641;SHT31;54434;50.096;20.082;2022-11-21T08:15:26;2.14;82.26
67641;SHT31;54434;50.096;20.082;2022-11-21T08:18:08;2.35;82.06
67641;SHT31;54434;50.096;20.082;2022-11-21T08:20:46;2.50;81.64
67641;SHT31;54434;50.096;20.082;2022-11-21T08:23:22;2.67;81.18
67641;SHT31;54434;50.096;20.082;2022-11-21T08:25:58;2.85;80.68
67641;SHT31;54434;50.096;20.082;2022-11-21T08:28:34;2.99;80.21
67641;SHT31;54434;50.096;20.082;2022-11-21T08:31:10;3.07;79.79
67641;SHT31;54434;50.096;20.082;2022-11-21T08:33:46;3.10;79.83
67641;SHT31;54434;50.096;20.082;2022-11-21T08:36:22;3.18;79.98
67641;SHT31;54434;50.096;20.082;2022-11-21T08:38:58;3.30;79.54
67641;SHT31;54434;50.096;20.082;2022-11-21T08:41:34;3.46;79.22
67641;SHT31;54434;50.096;20.082;2022-11-21T08:44:27;3.54;78.84
67641;SHT31;54434;50.096;20.082;2022-11-21T08:47:05;3.60;79.05
67641;SHT31;54434;50.096;20.082;2022-11-21T08:49:41;3.63;78.57
67641;SHT31;54434;50.096;20.082;2022-11-21T08:52:17;3.67;78.43
67641;SHT31;54434;50.096;20.082;2022-11-21T08:54:53;3.70;78.41
67641;SHT31;54434;50.096;20.082;2022-11-21T08:57:30;3.74;77.99
67641;SHT31;54434;50.096;20.082;2022-11-21T09:00:15;3.65;77.86
67641;SHT31;54434;50.096;20.082;2022-11-21T09:02:52;3.50;77.92
67641;SHT31;54434;50.096;20.082;2022-11-21T09:05:27;3.34;78.07
67641;SHT31;54434;50.096;20.082;2022-11-21T09:08:04;3.21;78.55
67641;SHT31;54434;50.096;20.082;2022-11-21T09:10:40;3.09;78.90
67641;SHT31;54434;50.096;20.082;2022-11-21T09:13:16;3.01;79.24
67641;SHT31;54434;50.096;20.082;2022-11-21T09:15:52;3.04;79.20
67641;SHT31;54434;50.096;20.082;2022-11-21T09:18:53;3.07;79.11
67641;SHT31;54434;50.096;20.082;2022-11-21T09:21:29;3.03;79.24
67641;SHT31;54434;50.096;20.082;2022-11-21T09:24:05;3.04;79.54
67641;SHT31;54434;50.096;20.082;2022-11-21T09:26:41;3.12;79.50
67641;SHT31;54434;50.096;20.082;2022-11-21T09:29:17;3.18;79.53
67641;SHT31;54434;50.096;20.082;2022-11-21T09:31:53;3.20;79.47
67641;SHT31;54434;50.096;20.082;2022-11-21T09:34:29;3.14;78.86
67641;SHT31;54434;50.096;20.082;2022-11-21T09:37:05;3.09;78.96
67641;SHT31;54434;50.096;20.082;2022-11-21T09:39:41;2.93;78.91
67641;SHT31;54434;50.096;20.082;2022-11-21T09:42:30;2.82;79.36
67641;SHT31;54434;50.096;20.082;2022-11-21T09:45:33;2.83;79.77
67641;SHT31;54434;50.096;20.082;2022-11-21T09:48:19;2.84;79.75
67641;SHT31;54434;50.096;20.082;2022-11-21T09:51:05;2.83;79.89
67641;SHT31;54434;50.096;20.082;2022-11-21T09:53:53;2.85;80.21
67641;SHT31;54434;50.096;20.082;2022-11-21T09:56:35;2.87;80.44
67641;SHT31;54434;50.096;20.082;2022-11-21T09:59:24;2.91;80.25
67641;SHT31;54434;50.096;20.082;2022-11-21T10:02:12;2.94;80.33
67641;SHT31;54434;50.096;20.082;2022-11-21T10:04:50;2.95;80.11
67641;SHT31;54434;50.096;20.082;2022-11-21T10:07:32;2.92;80.20
67641;SHT31;54434;50.096;20.082;2022-11-21T10:10:22;2.89;80.36
67641;SHT31;54434;50.096;20.082;2022-11-21T10:13:22;2.88;80.56
67641;SHT31;54434;50.096;20.082;2022-11-21T10:16:21;2.79;80.84
67641;SHT31;54434;50.096;20.082;2022-11-21T10:19:23;2.71;81.00
67641;SHT31;54434;50.096;20.082;2022-11-21T10:22:30;2.69;81.06
67641;SHT31;54434;50.096;20.082;2022-11-21T10:25:29;2.64;81.10
67641;SHT31;54434;50.096;20.082;2022-11-21T10:28:13;2.61;81.06
67641;SHT31;54434;50.096;20.082;2022-11-21T10:30:58;2.60;81.14
67641;SHT31;54434;50.096;20.082;2022-11-21T10:33:36;2.61;81.17
67641;SHT31;54434;50.096;20.082;2022-11-21T10:36:15;2.62;81.40
67641;SHT31;54434;50.096;20.082;2022-11-21T10:39:04;2.64;81.51
67641;SHT31;54434;50.096;20.082;2022-11-21T10:41:52;2.69;81.27
67641;SHT31;54434;50.096;20.082;2022-11-21T10:44:35;2.72;81.26
67641;SHT31;54434;50.096;20.082;2022-11-21T10:47:33;2.79;81.22
67641;SHT31;54434;50.096;20.082;2022-11-21T10:50:17;2.84;81.23
67641;SHT31;54434;50.096;20.082;2022-11-21T10:53:11;2.88;81.34
67641;SHT31;54434;50.096;20.082;2022-11-21T10:56:10;2.95;81.32
67641;SHT31;54434;50.096;20.082;2022-11-21T10:58:50;3.01;81.26
67641;SHT31;54434;50.096;20.082;2022-11-21T11:01:31;3.04;81.22
67641;SHT31;54434;50.096;20.082;2022-11-21T11:04:18;3.08;81.08
67641;SHT31;54434;50.096;20.082;2022-11-21T11:07:12;3.18;80.92
67641;SHT31;54434;50.096;20.082;2022-11-21T11:10:20;3.29;80.77
67641;SHT31;54434;50.096;20.082;2022-11-21T11:12:58;3.40;80.70
67641;SHT31;54434;50.096;20.082;2022-11-21T11:16:16;3.53;80.49
67641;SHT31;54434;50.096;20.082;2022-11-21T11:18:59;3.56;80.55
67641;SHT31;54434;50.096;20.082;2022-11-21T11:21:48;3.59;80.33
67641;SHT31;54434;50.096;20.082;2022-11-21T11:24:25;3.65;80.18
67641;SHT31;54434;50.096;20.082;2022-11-21T11:27:02;3.67;80.27
67641;SHT31;54434;50.096;20.082;2022-11-21T11:29:52;3.68;80.16
67641;SHT31;54434;50.096;20.082;2022-11-21T11:32:28;3.68;80.31
67641;SHT31;54434;50.096;20.082;2022-11-21T11:35:08;3.66;80.40
67641;SHT31;54434;50.096;20.082;2022-11-21T11:38:04;3.71;80.26
67641;SHT31;54434;50.096;20.082;2022-11-21T11:40:45;3.69;80.16
67641;SHT31;54434;50.096;20.082;2022-11-21T11:43:28;3.70;80.64
67641;SHT31;54434;50.096;20.082;2022-11-21T11:46:38;3.82;80.39
67641;SHT31;54434;50.096;20.082;2022-11-21T11:49:48;3.90;80.39
67641;SHT31;54434;50.096;20.082;2022-11-21T11:52:51;4.04;80.03
67641;SHT31;54434;50.096;20.082;2022-11-21T11:55:39;4.17;79.84
67641;SHT31;54434;50.096;20.082;2022-11-21T11:58:23;4.26;79.55
67641;SHT31;54434;50.096;20.082;2022-11-21T12:01:09;4.26;79.50
67641;SHT31;54434;50.096;20.082;2022-11-21T12:03:55;4.26;79.62
67641;SHT31;54434;50.096;20.082;2022-11-21T12:06:39;4.30;79.25
67641;SHT31;54434;50.096;20.082;2022-11-21T12:09:47;4.23;79.34
67641;SHT31;54434;50.096;20.082;2022-11-21T12:12:34;4.21;79.61
67641;SHT31;54434;50.096;20.082;2022-11-21T12:15:14;4.20;79.79
67641;SHT31;54434;50.096;20.082;2022-11-21T12:18:19;4.11;79.67
67641;SHT31;54434;50.096;20.082;2022-11-21T12:21:10;4.07;79.90
67641;SHT31;54434;50.096;20.082;2022-11-21T12:23:50;4.06;80.04
67641;SHT31;54434;50.096;20.082;2022-11-21T12:26:38;4.04;80.27
67641;SHT31;54434;50.096;20.082;2022-11-21T12:29:38;4.05;80.23
67641;SHT31;54434;50.096;20.082;2022-11-21T12:32:41;4.06;80.29
67641;SHT31;54434;50.096;20.082;2022-11-21T12:35:52;4.09;80.49
67641;SHT31;54434;50.096;20.082;2022-11-21T12:39:11;4.04;80.66
67641;SHT31;54434;50.096;20.082;2022-11-21T12:42:23;4.04;80.75
67641;SHT31;54434;50.096;20.082;2022-11-21T12:45:43;4.06;80.73
67641;SHT31;54434;50.096;20.082;2022-11-21T12:48:37;4.04;80.83
67641;SHT31;54434;50.096;20.082;2022-11-21T12:52:01;4.03;80.85
67641;SHT31;54434;50.096;20.082;2022-11-21T12:55:27;4.05;80.75
67641;SHT31;54434;50.096;20.082;2022-11-21T12:58:15;4.09;80.69
67641;SHT31;54434;50.096;20.082;2022-11-21T13:01:14;4.11;80.63
67641;SHT31;54434;50.096;20.082;2022-11-21T13:04:01;4.11;80.60
67641;SHT31;54434;50.096;20.082;2022-11-21T13:06:42;4.15;80.73
67641;SHT31;54434;50.096;20.082;2022-11-21T13:09:20;4.22;80.52
67641;SHT31;54434;50.096;20.082;2022-11-21T13:12:01;4.24;80.46
67641;SHT31;54434;50.096;20.082;2022-11-21T13:14:47;4.25;80.55
67641;SHT31;54434;50.096;20.082;2022-11-21T13:17:42;4.31;80.32
67641;SHT31;54434;50.096;20.082;2022-11-21T13:20:28;4.36;80.14
67641;SHT31;54434;50.096;20.082;2022-11-21T13:26:49;4.38;80.11
67641;SHT31;54434;50.096;20.082;2022-11-21T13:29:27;4.40;79.94
67641;SHT31;54434;50.096;20.082;2022-11-21T13:42:11;4.31;80.21
67641;SHT31;54434;50.096;20.082;2022-11-21T13:48:38;4.31;80.30
67641;SHT31;54434;50.096;20.082;2022-11-21T13:51:50;4.31;80.28
67641;SHT31;54434;50.096;20.082;2022-11-21T13:54:39;4.30;80.40
67641;SHT31;54434;50.096;20.082;2022-11-21T13:57:57;4.31;80.38
67641;SHT31;54434;50.096;20.082;2022-11-21T14:00:57;4.32;80.40
67641;SHT31;54434;50.096;20.082;2022-11-21T14:04:36;4.28;80.49
67641;SHT31;54434;50.096;20.082;2022-11-21T14:07:30;4.29;80.63
67641;SHT31;54434;50.096;20.082;2022-11-21T14:10:18;4.27;80.69
67641;SHT31;54434;50.096;20.082;2022-11-21T14:13:13;4.25;80.89
67641;SHT31;54434;50.096;20.082;2022-11-21T14:16:07;4.25;80.93
67641;SHT31;54434;50.096;20.082;2022-11-21T14:18:59;4.32;80.72
67641;SHT31;54434;50.096;20.082;2022-11-21T14:21:36;4.35;80.64
67641;SHT31;54434;50.096;20.082;2022-11-21T14:24:18;4.31;80.62
67641;SHT31;54434;50.096;20.082;2022-11-21T14:26:54;4.23;80.88
67641;SHT31;54434;50.096;20.082;2022-11-21T14:29:38;4.17;81.09
67641;SHT31;54434;50.096;20.082;2022-11-21T14:32:15;4.20;81.11
67641;SHT31;54434;50.096;20.082;2022-11-21T14:35:20;4.20;80.98
67641;SHT31;54434;50.096;20.082;2022-11-21T14:37:56;4.16;80.92
67641;SHT31;54434;50.096;20.082;2022-11-21T14:40:37;4.14;81.09
67641;SHT31;54434;50.096;20.082;2022-11-21T14:43:28;4.14;81.05
67641;SHT31;54434;50.096;20.082;2022-11-21T14:46:13;4.09;80.80
67641;SHT31;54434;50.096;20.082;2022-11-21T14:48:52;4.07;80.91
67641;SHT31;54434;50.096;20.082;2022-11-21T14:51:41;4.00;80.84
67641;SHT31;54434;50.096;20.082;2022-11-21T14:54:22;3.94;81.14
67641;SHT31;54434;50.096;20.082;2022-11-21T14:57:06;3.90;81.24
67641;SHT31;54434;50.096;20.082;2022-11-21T14:59:54;3.85;81.43
67641;SHT31;54434;50.096;20.082;2022-11-21T15:02:32;3.82;81.59
67641;SHT31;54434;50.096;20.082;2022-11-21T15:05:13;3.77;81.77
67641;SHT31;54434;50.096;20.082;2022-11-21T15:08:11;3.72;82.09
67641;SHT31;54434;50.096;20.082;2022-11-21T15:11:15;3.68;82.19
67641;SHT31;54434;50.096;20.082;2022-11-21T15:13:55;3.67;82.24
67641;SHT31;54434;50.096;20.082;2022-11-21T15:16:48;3.65;82.35
67641;SHT31;54434;50.096;20.082;2022-11-21T15:19:28;3.63;82.36
67641;SHT31;54434;50.096;20.082;2022-11-21T15:22:04;3.60;82.47
67641;SHT31;54434;50.096;20.082;2022-11-21T15:25:06;3.57;82.56
67641;SHT31;54434;50.096;20.082;2022-11-21T15:27:51;3.56;82.77
67641;SHT31;54434;50.096;20.082;2022-11-21T15:30:46;3.57;82.67
67641;SHT31;54434;50.096;20.082;2022-11-21T15:33:56;3.54;82.67
67641;SHT31;54434;50.096;20.082;2022-11-21T15:37:05;3.50;82.78
67641;SHT31;54434;50.096;20.082;2022-11-21T15:39:50;3.48;82.82
67641;SHT31;54434;50.096;20.082;2022-11-21T15:42:35;3.44;82.89
67641;SHT31;54434;50.096;20.082;2022-11-21T15:45:23;3.40;82.92
67641;SHT31;54434;50.096;20.082;2022-11-21T15:48:01;3.38;83.00
67641;SHT31;54434;50.096;20.082;2022-11-21T15:50:37;3.38;82.94
67641;SHT31;54434;50.096;20.082;2022-11-21T15:53:18;3.34;82.90
67641;SHT31;54434;50.096;20.082;2022-11-21T15:55:54;3.31;82.89
67641;SHT31;54434;50.096;20.082;2022-11-21T15:58:31;3.30;82.87
67641;SHT31;54434;50.096;20.082;2022-11-21T16:01:10;3.26;82.94
67641;SHT31;54434;50.096;20.082;2022-11-21T16:03:50;3.25;82.95
67641;SHT31;54434;50.096;20.082;2022-11-21T16:06:30;3.22;83.05
67641;SHT31;54434;50.096;20.082;2022-11-21T16:09:07;3.19;83.09
67641;SHT31;54434;50.096;20.082;2022-11-21T16:11:43;3.12;83.28
67641;SHT31;54434;50.096;20.082;2022-11-21T16:14:19;3.10;83.30
67641;SHT31;54434;50.096;20.082;2022-11-21T16:16:55;3.08;83.36
67641;SHT31;54434;50.096;20.082;2022-11-21T16:19:31;3.03;83.43
67641;SHT31;54434;50.096;20.082;2022-11-21T16:22:07;3.02;83.56
67641;SHT31;54434;50.096;20.082;2022-11-21T16:24:43;3.01;83.62
67641;SHT31;54434;50.096;20.082;2022-11-21T16:27:21;3.01;83.67
67641;SHT31;54434;50.096;20.082;2022-11-21T16:29:57;2.99;83.78
67641;SHT31;54434;50.096;20.082;2022-11-21T16:32:33;2.98;83.80
67641;SHT31;54434;50.096;20.082;2022-11-21T16:35:10;2.97;83.88
67641;SHT31;54434;50.096;20.082;2022-11-21T16:37:45;2.95;83.95
67641;SHT31;54434;50.096;20.082;2022-11-21T16:40:24;2.95;84.13
67641;SHT31;54434;50.096;20.082;2022-11-21T16:43:07;2.95;84.16
67641;SHT31;54434;50.096;20.082;2022-11-21T16:45:44;2.96;84.20
67641;SHT31;54434;50.096;20.082;2022-11-21T16:48:23;2.95;84.35
67641;SHT31;54434;50.096;20.082;2022-11-21T16:51:02;2.95;84.51
67641;SHT31;54434;50.096;20.082;2022-11-21T16:53:47;2.96;84.54
67641;SHT31;54434;50.096;20.082;2022-11-21T16:56:24;2.97;84.60
67641;SHT31;54434;50.096;20.082;2022-11-21T16:59:00;2.97;84.54
67641;SHT31;54434;50.096;20.082;2022-11-21T17:01:36;2.93;84.63
67641;SHT31;54434;50.096;20.082;2022-11-21T17:04:12;2.93;84.82
67641;SHT31;54434;50.096;20.082;2022-11-21T17:06:48;2.97;84.84
67641;SHT31;54434;50.096;20.082;2022-11-21T17:09:24;3.05;84.77
67641;SHT31;54434;50.096;20.082;2022-11-21T17:12:01;3.10;84.60
67641;SHT31;54434;50.096;20.082;2022-11-21T17:14:39;3.21;84.52